Time;durP1;ratioP1;P1;durP2;ratioP2;P2;SDS_P1;SDS_P2;PMS_P1;PMS_P2;Temp;Humidity;BMP_temperature;BMP_pressure;BME280_temperature;BME280_humidity;BME280_pressure;Samples;Min_cycle;Max_cycle;Signal;HPM_P1;HPM_P2
2023/08/10 00:00:39;;;;;;;5.32;2.40;;;;;;;20.56;67.11;100160.00;4482728;32;33836;-76
2023/08/10 00:03:07;;;;;;;4.32;2.42;;;;;;;20.35;67.72;100159.78;4477023;32;34506;-76
2023/08/10 00:05:37;;;;;;;4.32;2.30;;;;;;;20.40;67.50;100153.69;4484073;32;34008;-76
2023/08/10 00:08:04;;;;;;;3.25;2.20;;;;;;;20.69;66.38;100154.91;4483191;32;32967;-76
2023/08/10 00:10:32;;;;;;;5.03;2.50;;;;;;;20.81;65.49;100153.25;4469176;32;33592;-76
2023/08/10 00:12:59;;;;;;;4.25;2.37;;;;;;;20.83;65.34;100153.25;4483622;32;33589;-76
2023/08/10 00:15:26;;;;;;;3.90;2.20;;;;;;;20.56;66.11;100149.47;4483532;32;33249;-76
2023/08/10 00:17:54;;;;;;;4.68;2.15;;;;;;;20.64;65.96;100156.59;4483481;32;34463;-77
2023/08/10 00:20:22;;;;;;;3.57;2.10;;;;;;;20.65;65.70;100153.09;4483243;32;33753;-76
2023/08/10 00:22:49;;;;;;;3.55;2.20;;;;;;;20.43;66.24;100158.09;4483395;32;33467;-76
2023/08/10 00:25:17;;;;;;;4.40;2.20;;;;;;;20.41;66.37;100149.31;4483613;32;33375;-76
2023/08/10 00:27:45;;;;;;;4.35;2.30;;;;;;;20.20;66.91;100148.25;4469248;32;33635;-77
2023/08/10 00:30:12;;;;;;;3.40;2.30;;;;;;;20.32;66.82;100154.47;4483634;32;34660;-77
2023/08/10 00:32:41;;;;;;;3.60;2.12;;;;;;;20.32;66.70;100152.75;4482377;32;33451;-77
2023/08/10 00:35:09;;;;;;;4.35;2.33;;;;;;;20.14;67.66;100153.41;4483639;31;36211;-76
2023/08/10 00:37:37;;;;;;;3.97;2.47;;;;;;;20.09;67.98;100151.59;4481579;32;34394;-76
2023/08/10 00:40:09;;;;;;;4.95;2.50;;;;;;;19.96;68.28;100156.72;4479354;32;33970;-77
2023/08/10 00:42:36;;;;;;;4.05;2.80;;;;;;;19.67;69.74;100150.16;4465189;32;32633;-77
2023/08/10 00:45:05;;;;;;;5.20;2.80;;;;;;;19.61;70.17;100158.84;4483840;32;33282;-76
2023/08/10 00:47:33;;;;;;;4.30;2.40;;;;;;;19.52;70.35;100153.47;4468261;32;32308;-76
2023/08/10 00:50:01;;;;;;;3.90;2.60;;;;;;;19.12;72.19;100147.59;4479580;32;33463;-76
2023/08/10 00:52:30;;;;;;;4.60;2.70;;;;;;;19.44;70.82;100151.59;4475669;32;33934;-76
2023/08/10 00:54:57;;;;;;;4.10;2.55;;;;;;;19.81;69.26;100141.63;4482100;32;34039;-76
2023/08/10 00:57:25;;;;;;;3.90;2.50;;;;;;;19.83;68.95;100147.78;4455862;32;34105;-76
2023/08/10 00:59:53;;;;;;;5.05;2.53;;;;;;;20.20;67.19;100137.72;4451395;32;33716;-77
2023/08/10 01:02:21;;;;;;;4.35;2.42;;;;;;;19.54;69.69;100146.47;4449687;32;33613;-76
2023/08/10 01:04:49;;;;;;;5.72;2.80;;;;;;;19.69;69.00;100146.69;4450557;32;33790;-76
2023/08/10 01:07:34;;;;;;;4.20;2.62;;;;;;;19.41;70.47;100154.19;4444225;32;33568;-76
2023/08/10 01:10:12;;;;;;;4.30;2.70;;;;;;;19.48;70.21;100146.41;4452562;32;32959;-76
2023/08/10 01:13:22;;;;;;;3.67;2.35;;;;;;;19.35;70.34;100154.09;4449725;32;33156;-76
2023/08/10 01:15:53;;;;;;;4.47;2.50;;;;;;;19.58;69.29;100148.28;4443060;32;33399;-76
2023/08/10 01:18:25;;;;;;;3.95;2.45;;;;;;;19.68;68.58;100150.16;4445291;32;34108;-76
2023/08/10 01:20:58;;;;;;;4.20;2.25;;;;;;;19.63;68.74;100149.25;4447767;32;34185;-76
2023/08/10 01:23:32;;;;;;;3.90;2.10;;;;;;;19.54;69.19;100146.47;4451998;32;33225;-76
2023/08/10 01:26:00;;;;;;;4.22;2.45;;;;;;;19.81;68.20;100146.88;4450515;32;32542;-77
2023/08/10 01:28:27;;;;;;;3.77;2.43;;;;;;;19.74;68.27;100154.66;4426430;32;33967;-76
2023/08/10 01:30:55;;;;;;;4.13;2.27;;;;;;;19.59;68.83;100150.06;4451991;32;34525;-76
2023/08/10 01:33:23;;;;;;;4.05;2.40;;;;;;;19.49;69.16;100156.03;4450334;32;34309;-77
2023/08/10 01:35:50;;;;;;;6.00;2.65;;;;;;;19.27;70.40;100153.09;4451673;32;33436;-76
2023/08/10 01:38:18;;;;;;;5.35;2.20;;;;;;;19.80;68.01;100154.75;4448249;32;33513;-76
2023/08/10 01:40:47;;;;;;;4.30;2.30;;;;;;;20.00;66.85;100153.25;4451094;32;34382;-76
2023/08/10 01:43:15;;;;;;;4.60;2.60;;;;;;;19.39;69.29;100158.56;4450766;32;34383;-76
2023/08/10 01:46:03;;;;;;;4.43;2.40;;;;;;;19.49;69.60;100159.56;4451649;32;34270;-76
2023/08/10 01:48:33;;;;;;;4.87;2.30;;;;;;;19.37;70.42;100160.28;4445524;32;33604;-76
2023/08/10 01:51:02;;;;;;;4.60;2.50;;;;;;;19.08;71.67;100156.31;4449319;32;33150;-76
2023/08/10 01:53:31;;;;;;;6.47;2.53;;;;;;;19.16;71.52;100157.28;4451440;32;34258;-76
2023/08/10 01:55:59;;;;;;;3.65;2.40;;;;;;;19.23;71.66;100151.28;4452928;32;33754;-76
2023/08/10 01:58:26;;;;;;;5.87;2.75;;;;;;;19.10;71.81;100159.84;4466484;32;33740;-76
2023/08/10 02:00:55;;;;;;;5.15;2.50;;;;;;;19.15;71.81;100148.53;4483227;32;33984;-77
2023/08/10 02:03:22;;;;;;;4.55;2.60;;;;;;;19.29;71.07;100154.00;4462364;32;33841;-76
2023/08/10 02:05:50;;;;;;;3.90;2.40;;;;;;;19.32;71.26;100155.81;4482595;32;33996;-76
2023/08/10 02:08:18;;;;;;;5.32;2.83;;;;;;;19.19;71.26;100152.09;4479626;32;33364;-76
2023/08/10 02:10:46;;;;;;;3.83;2.50;;;;;;;19.44;70.39;100150.72;4476910;32;33827;-76
2023/08/10 02:13:13;;;;;;;4.60;2.78;;;;;;;19.32;70.30;100154.06;4475454;32;34200;-76
2023/08/10 02:15:42;;;;;;;4.57;2.85;;;;;;;19.19;70.70;100154.72;4483114;32;33770;-77
2023/08/10 02:18:11;;;;;;;6.03;3.07;;;;;;;19.18;70.62;100152.94;4477759;32;34278;-76
2023/08/10 02:20:39;;;;;;;4.47;2.97;;;;;;;19.12;71.01;100159.00;4478392;32;33471;-76
2023/08/10 02:23:06;;;;;;;4.50;2.77;;;;;;;19.58;68.93;100150.91;4474450;32;33873;-76
2023/08/10 02:25:34;;;;;;;5.68;3.00;;;;;;;19.18;70.61;100150.31;4480621;32;33176;-77
2023/08/10 02:28:01;;;;;;;5.97;3.10;;;;;;;19.10;71.34;100154.59;4480617;32;33533;-76
2023/08/10 02:30:29;;;;;;;5.82;3.33;;;;;;;19.33;70.22;100142.69;4455688;32;33831;-76
2023/08/10 02:32:57;;;;;;;4.47;2.90;;;;;;;19.43;70.12;100149.84;4475260;32;33719;-76
2023/08/10 02:35:25;;;;;;;6.20;2.97;;;;;;;19.22;70.63;100149.53;4478231;32;33987;-77
2023/08/10 02:37:52;;;;;;;5.17;3.17;;;;;;;19.07;71.63;100144.06;4481070;32;34419;-76
2023/08/10 02:40:21;;;;;;;4.87;3.20;;;;;;;19.22;70.86;100144.28;4473562;32;34551;-76
2023/08/10 02:42:48;;;;;;;5.40;3.53;;;;;;;19.27;70.53;100147.84;4475153;32;33560;-76
2023/08/10 02:45:16;;;;;;;5.53;3.30;;;;;;;19.13;71.11;100133.62;4482194;32;33084;-76
2023/08/10 02:47:47;;;;;;;5.80;3.60;;;;;;;18.99;72.18;100143.94;4479854;32;34376;-75
2023/08/10 02:50:14;;;;;;;5.18;3.45;;;;;;;19.20;70.73;100140.72;4478911;32;34552;-76
2023/08/10 02:52:42;;;;;;;6.55;3.50;;;;;;;19.08;71.60;100141.41;4474162;32;33976;-76
2023/08/10 02:55:10;;;;;;;5.00;3.30;;;;;;;19.05;71.43;100142.28;4481187;32;32554;-76
2023/08/10 02:57:37;;;;;;;5.22;3.30;;;;;;;18.96;72.04;100142.13;4482263;32;34571;-76
2023/08/10 03:00:06;;;;;;;5.20;3.30;;;;;;;19.12;71.58;100147.59;4483761;32;33988;-76
2023/08/10 03:02:34;;;;;;;5.78;3.80;;;;;;;19.11;71.68;100151.09;4480628;32;33381;-76
2023/08/10 03:05:02;;;;;;;5.60;3.50;;;;;;;19.21;71.18;100142.50;4477964;32;33025;-76
2023/08/10 03:07:30;;;;;;;6.17;3.50;;;;;;;18.95;72.18;100149.97;4478465;32;34403;-77
2023/08/10 03:09:58;;;;;;;5.60;3.65;;;;;;;18.85;72.55;100146.31;4481745;32;34240;-76
2023/08/10 03:12:26;;;;;;;6.50;3.80;;;;;;;19.38;70.53;100142.75;4475365;32;33981;-76
2023/08/10 03:14:54;;;;;;;6.45;4.05;;;;;;;19.04;71.70;100144.84;4484502;32;33211;-76
2023/08/10 03:17:21;;;;;;;6.12;4.00;;;;;;;19.12;71.38;100144.97;4484072;32;33526;-76
2023/08/10 03:19:51;;;;;;;7.00;4.00;;;;;;;19.02;71.87;100147.47;4482626;32;34399;-76
2023/08/10 03:22:19;;;;;;;7.05;4.30;;;;;;;19.10;71.59;100154.59;4483733;32;33598;-76
2023/08/10 03:24:47;;;;;;;5.57;3.92;;;;;;;19.07;71.69;100144.06;4472054;32;33885;-77
2023/08/10 03:27:15;;;;;;;6.12;3.70;;;;;;;19.11;71.38;100145.84;4483323;32;33597;-76
2023/08/10 03:29:42;;;;;;;6.22;3.92;;;;;;;18.96;71.93;100146.50;4477451;32;33548;-76
2023/08/10 03:32:10;;;;;;;5.65;3.85;;;;;;;18.67;73.26;100150.34;4473851;32;34384;-76
2023/08/10 03:34:38;;;;;;;6.15;4.00;;;;;;;18.93;72.14;100151.69;4481684;32;33404;-76
2023/08/10 03:37:05;;;;;;;6.80;3.80;;;;;;;18.85;71.98;100155.09;4482282;32;33588;-77
2023/08/10 03:39:33;;;;;;;6.28;3.92;;;;;;;18.93;72.01;100157.84;4479447;32;35002;-76
2023/08/10 03:42:01;;;;;;;6.03;3.80;;;;;;;18.89;71.90;100166.53;4480622;32;33738;-76
2023/08/10 03:44:29;;;;;;;6.97;3.97;;;;;;;18.65;73.51;100173.06;4478679;32;33226;-76
2023/08/10 03:46:57;;;;;;;6.10;3.87;;;;;;;18.72;73.04;100181.06;4481656;32;33582;-76
2023/08/10 03:49:25;;;;;;;6.65;3.80;;;;;;;18.94;71.97;100182.34;4462946;32;33875;-77
2023/08/10 03:51:52;;;;;;;7.15;3.62;;;;;;;18.98;71.62;100187.66;4469765;32;34338;-76
2023/08/10 03:54:20;;;;;;;5.00;3.35;;;;;;;18.77;72.85;100192.50;4467611;32;33866;-76
2023/08/10 03:56:47;;;;;;;6.03;3.50;;;;;;;18.53;73.49;100193.81;4481532;32;33799;-76
2023/08/10 03:59:15;;;;;;;5.22;3.28;;;;;;;18.58;73.21;100186.94;4483650;32;34004;-76
2023/08/10 04:01:43;;;;;;;8.20;3.97;;;;;;;18.72;72.17;100191.56;4481459;32;33850;-77
2023/08/10 04:04:11;;;;;;;6.32;3.40;;;;;;;18.84;71.70;100195.28;4480376;32;33101;-76
2023/08/10 04:06:40;;;;;;;5.97;3.50;;;;;;;18.70;72.12;100193.22;4483840;32;33644;-77
2023/08/10 04:09:09;;;;;;;6.65;3.12;;;;;;;18.78;71.85;100189.03;4478023;32;33845;-76
2023/08/10 04:11:37;;;;;;;5.15;2.85;;;;;;;18.84;71.15;100197.03;4480024;32;33486;-76
2023/08/10 04:14:05;;;;;;;5.10;2.93;;;;;;;18.73;71.53;100195.94;4479742;32;33461;-76
2023/08/10 04:16:32;;;;;;;4.53;2.62;;;;;;;18.81;71.27;100196.97;4483404;32;34328;-76
2023/08/10 04:19:01;;;;;;;4.80;2.50;;;;;;;18.85;70.85;100198.78;4483204;32;34637;-76
2023/08/10 04:21:31;;;;;;;5.60;2.58;;;;;;;19.22;69.51;100197.69;4482097;32;34256;-76
2023/08/10 04:23:58;;;;;;;4.77;2.40;;;;;;;18.83;70.94;100203.13;4475921;32;34096;-76
2023/08/10 04:26:26;;;;;;;6.82;2.53;;;;;;;19.11;69.98;100203.63;4480512;32;33798;-76
2023/08/10 04:28:53;;;;;;;4.57;2.47;;;;;;;18.93;71.07;100202.47;4483434;32;33772;-77
2023/08/10 04:31:21;;;;;;;6.12;2.60;;;;;;;18.93;71.20;100205.09;4467192;32;32888;-76
2023/08/10 04:33:48;;;;;;;5.22;3.00;;;;;;;18.90;71.70;100205.00;4477579;32;33235;-76
2023/08/10 04:36:16;;;;;;;4.40;2.90;;;;;;;18.91;71.59;100206.81;4478975;32;33706;-76
2023/08/10 04:38:43;;;;;;;6.03;3.08;;;;;;;18.69;72.98;100207.22;4479619;32;35302;-76
2023/08/10 04:41:11;;;;;;;6.87;3.00;;;;;;;18.78;72.21;100204.78;4475923;32;34360;-77
2023/08/10 04:43:38;;;;;;;6.78;3.47;;;;;;;18.98;71.46;100208.66;4483715;32;34248;-76
2023/08/10 04:46:06;;;;;;;5.13;2.87;;;;;;;18.78;72.41;100207.41;4473336;32;33283;-76
2023/08/10 04:48:34;;;;;;;5.62;3.42;;;;;;;19.03;71.49;100204.38;4479875;32;33322;-76
2023/08/10 04:51:01;;;;;;;5.70;3.30;;;;;;;19.15;71.01;100202.81;4483677;32;34311;-76
2023/08/10 04:53:29;;;;;;;5.80;3.17;;;;;;;18.98;71.42;100208.66;4472026;32;34087;-76
2023/08/10 04:55:57;;;;;;;5.53;3.00;;;;;;;19.04;71.37;100206.16;4475622;32;34550;-76
2023/08/10 04:58:25;;;;;;;6.00;2.92;;;;;;;19.07;71.28;100207.06;4479719;32;33548;-75
2023/08/10 05:00:53;;;;;;;6.13;3.00;;;;;;;19.48;69.87;100209.47;4458622;32;34189;-77
2023/08/10 05:03:21;;;;;;;5.47;3.15;;;;;;;19.51;69.88;100214.75;4473910;32;33384;-76
2023/08/10 05:05:49;;;;;;;5.70;3.08;;;;;;;19.51;69.72;100225.25;4475708;32;33551;-76
2023/08/10 05:08:17;;;;;;;5.65;3.45;;;;;;;19.75;68.53;100215.12;4475850;31;33805;-75
2023/08/10 05:10:47;;;;;;;7.20;3.62;;;;;;;19.76;68.67;100221.28;4473786;32;33791;-75
2023/08/10 05:13:15;;;;;;;6.57;3.85;;;;;;;20.05;67.14;100213.81;4459864;32;33254;-75
2023/08/10 05:15:43;;;;;;;5.78;3.70;;;;;;;19.93;67.81;100219.75;4481366;32;35178;-75
2023/08/10 05:18:10;;;;;;;5.80;3.60;;;;;;;19.47;69.77;100218.19;4479260;32;34537;-75
2023/08/10 05:20:38;;;;;;;5.90;3.85;;;;;;;19.74;69.59;100213.37;4482149;32;33301;-76
2023/08/10 05:23:05;;;;;;;5.97;3.67;;;;;;;19.94;68.33;100210.16;4483455;32;32740;-75
2023/08/10 05:25:33;;;;;;;6.15;3.28;;;;;;;19.70;69.18;100215.91;4474837;32;34256;-75
2023/08/10 05:28:00;;;;;;;5.00;3.33;;;;;;;20.19;67.14;100217.47;4459050;32;32090;-75
2023/08/10 05:30:28;;;;;;;5.97;3.20;;;;;;;20.25;66.82;100218.44;4458017;32;34123;-75
2023/08/10 05:32:56;;;;;;;5.75;3.60;;;;;;;20.17;66.90;100224.47;4479242;32;34007;-75
2023/08/10 05:35:24;;;;;;;6.18;3.50;;;;;;;20.43;66.12;100216.87;4476807;32;34295;-76
2023/08/10 05:37:51;;;;;;;6.30;3.80;;;;;;;20.22;66.79;100228.03;4474513;32;34351;-75
2023/08/10 05:40:19;;;;;;;5.90;3.83;;;;;;;20.23;66.79;100224.53;4473739;32;34082;-75
2023/08/10 05:42:48;;;;;;;6.80;3.70;;;;;;;20.19;66.66;100230.63;4476745;32;33400;-75
2023/08/10 05:45:19;;;;;;;5.53;3.57;;;;;;;20.02;67.65;100240.03;4482126;32;33765;-76
2023/08/10 05:47:49;;;;;;;6.00;3.70;;;;;;;19.91;68.66;100236.38;4483266;32;33463;-75
2023/08/10 05:50:17;;;;;;;6.35;3.53;;;;;;;20.08;67.49;100245.38;4458083;32;32110;-75
2023/08/10 05:52:45;;;;;;;7.10;3.45;;;;;;;20.13;67.47;100241.06;4482862;32;33036;-75
2023/08/10 05:55:14;;;;;;;7.07;4.20;;;;;;;20.16;67.50;100248.97;4466620;32;32333;-76
2023/08/10 05:57:42;;;;;;;6.70;4.07;;;;;;;20.08;68.22;100253.28;4481178;32;33829;-75
2023/08/10 06:00:12;;;;;;;5.87;4.05;;;;;;;20.22;68.07;100245.56;4483069;32;34266;-75
2023/08/10 06:02:40;;;;;;;6.65;3.87;;;;;;;20.44;67.02;100249.34;4483053;32;33099;-75
2023/08/10 06:05:09;;;;;;;6.22;3.65;;;;;;;20.32;67.37;100249.19;4478091;32;34426;-75
2023/08/10 06:07:37;;;;;;;6.18;3.55;;;;;;;20.31;67.51;100247.44;4471630;32;33793;-75
2023/08/10 06:10:05;;;;;;;5.73;3.80;;;;;;;20.50;66.87;100253.81;4478433;32;34332;-81
2023/08/10 06:12:33;;;;;;;6.00;3.80;;;;;;;20.13;68.33;100248.97;4468183;32;32886;-76
2023/08/10 06:15:00;;;;;;;5.85;3.80;;;;;;;20.55;66.93;100242.47;4469395;32;33361;-75
2023/08/10 06:17:29;;;;;;;5.70;3.90;;;;;;;20.63;66.64;100245.22;4483120;32;33527;-75
2023/08/10 06:19:57;;;;;;;8.00;4.28;;;;;;;20.76;66.27;100235.69;4471282;32;33539;-75
2023/08/10 06:22:26;;;;;;;7.30;3.80;;;;;;;20.93;65.21;100247.25;4482424;32;33187;-74
2023/08/10 06:24:54;;;;;;;6.10;4.00;;;;;;;20.83;65.85;100241.91;4474249;32;34544;-74
2023/08/10 06:27:21;;;;;;;6.22;3.80;;;;;;;20.76;65.99;100247.09;4475078;32;33575;-74
2023/08/10 06:29:49;;;;;;;6.20;3.83;;;;;;;20.77;65.40;100248.00;4467002;32;32928;-75
2023/08/10 06:32:18;;;;;;;5.90;3.75;;;;;;;20.92;65.14;100242.88;4469451;32;33451;-78
2023/08/10 06:34:46;;;;;;;5.80;3.60;;;;;;;20.91;65.16;100256.03;4472567;32;33159;-75
2023/08/10 06:37:16;;;;;;;5.68;3.40;;;;;;;20.92;64.42;100248.16;4449460;32;32130;-75
2023/08/10 06:39:46;;;;;;;6.80;3.65;;;;;;;20.72;65.76;100257.56;4472355;32;33046;-75
2023/08/10 06:42:14;;;;;;;6.15;3.80;;;;;;;20.81;66.02;100260.31;4482085;32;33067;-75
2023/08/10 06:44:42;;;;;;;5.65;3.33;;;;;;;21.06;64.55;100260.56;4471839;32;33677;-75
2023/08/10 06:47:10;;;;;;;5.67;3.50;;;;;;;21.15;64.65;100263.25;4466354;32;33466;-74
2023/08/10 06:49:38;;;;;;;4.60;3.12;;;;;;;21.33;64.53;100270.47;4475517;32;33432;-74
2023/08/10 06:52:05;;;;;;;6.03;3.15;;;;;;;21.47;62.89;100279.38;4471090;32;33657;-74
2023/08/10 06:54:33;;;;;;;4.87;3.20;;;;;;;21.26;63.52;100282.69;4454544;32;33090;-74
2023/08/10 06:57:01;;;;;;;5.47;3.42;;;;;;;21.38;63.32;100274.91;4473887;32;33677;-74
2023/08/10 06:59:29;;;;;;;4.60;3.10;;;;;;;21.34;63.35;100283.66;4476541;32;34427;-75
2023/08/10 07:02:17;;;;;;;6.37;3.30;;;;;;;21.31;63.01;100283.63;4458341;32;31496;-76
2023/08/10 07:04:45;;;;;;;5.50;3.45;;;;;;;21.55;62.60;100284.72;4476962;32;33885;-75
2023/08/10 07:07:14;;;;;;;5.30;3.40;;;;;;;21.67;62.11;100287.47;4475359;32;34293;-75
2023/08/10 07:09:42;;;;;;;5.18;3.00;;;;;;;21.45;63.13;100288.16;4481779;32;34084;-75
2023/08/10 07:12:09;;;;;;;5.43;3.17;;;;;;;21.85;62.13;100285.81;4477909;32;34057;-75
2023/08/10 07:14:37;;;;;;;4.50;2.80;;;;;;;21.90;60.90;100286.72;4480886;32;34840;-75
2023/08/10 07:17:05;;;;;;;5.18;3.08;;;;;;;21.91;59.89;100285.84;4476255;32;33679;-76
2023/08/10 07:19:34;;;;;;;4.62;2.50;;;;;;;21.85;60.84;100291.09;4471530;32;33653;-75
2023/08/10 07:22:02;;;;;;;4.60;2.20;;;;;;;21.74;61.32;100294.53;4469962;32;33284;-75
2023/08/10 07:24:29;;;;;;;3.85;2.00;;;;;;;22.04;58.39;100292.06;4478781;32;34611;-74
2023/08/10 07:26:57;;;;;;;3.60;2.10;;;;;;;22.11;57.35;100300.03;4471482;32;34532;-75
2023/08/10 07:29:24;;;;;;;4.25;2.20;;;;;;;22.07;57.83;100308.81;4469102;32;33726;-76
2023/08/10 07:32:00;;;;;;;3.72;2.05;;;;;;;22.27;57.47;100302.78;4469849;32;33777;-75
2023/08/10 07:34:28;;;;;;;3.47;1.83;;;;;;;22.28;57.59;100297.53;4474859;32;34433;-76
2023/08/10 07:36:56;;;;;;;4.12;1.75;;;;;;;22.64;55.95;100295.00;4477307;32;34551;-75
2023/08/10 07:39:23;;;;;;;3.05;1.62;;;;;;;22.82;54.27;100292.44;4466526;32;33454;-76
2023/08/10 07:41:52;;;;;;;4.00;1.80;;;;;;;22.90;53.37;100290.69;4458417;32;33398;-75
2023/08/10 07:44:20;;;;;;;2.90;1.40;;;;;;;23.23;51.82;100283.72;4468353;32;33762;-75
2023/08/10 07:46:48;;;;;;;3.25;1.70;;;;;;;23.43;49.76;100282.84;4471723;32;33937;-76
2023/08/10 07:49:17;;;;;;;3.33;1.40;;;;;;;23.35;50.74;100296.06;4467666;32;33653;-77
2023/08/10 07:51:47;;;;;;;3.30;1.60;;;;;;;23.54;49.57;100289.03;4477172;32;33061;-76
2023/08/10 07:54:14;;;;;;;3.37;1.53;;;;;;;23.69;50.42;100294.31;4475763;32;33536;-75
2023/08/10 07:56:42;;;;;;;3.22;1.40;;;;;;;23.61;51.24;100288.16;4475194;32;33368;-75
2023/08/10 07:59:11;;;;;;;2.62;1.30;;;;;;;23.82;50.30;100281.13;4482221;31;34231;-75
2023/08/10 08:01:39;;;;;;;3.83;1.55;;;;;;;24.01;49.53;100289.88;4465517;32;32857;-76
2023/08/10 08:04:07;;;;;;;3.97;1.52;;;;;;;23.68;49.75;100294.28;4475985;32;33899;-77
2023/08/10 08:06:36;;;;;;;2.45;1.45;;;;;;;23.90;48.82;100289.91;4481239;32;33816;-75
2023/08/10 08:09:06;;;;;;;2.80;1.35;;;;;;;23.61;50.42;100293.44;4461031;32;33767;-76
2023/08/10 08:11:34;;;;;;;3.53;1.45;;;;;;;24.20;48.04;100293.34;4473514;32;33173;-75
2023/08/10 08:14:02;;;;;;;2.28;1.25;;;;;;;24.31;46.93;100296.84;4466638;32;34008;-74
2023/08/10 08:16:30;;;;;;;3.03;1.45;;;;;;;24.49;46.90;100302.09;4478660;32;33790;-79
2023/08/10 08:19:00;;;;;;;2.55;1.30;;;;;;;24.66;46.23;100309.09;4478354;32;34180;-75
2023/08/10 08:21:29;;;;;;;2.97;1.20;;;;;;;25.18;44.17;100298.19;4473658;32;33897;-75
2023/08/10 08:23:57;;;;;;;3.12;1.50;;;;;;;25.17;46.24;100301.75;4473411;32;33443;-75
2023/08/10 08:26:26;;;;;;;4.03;1.20;;;;;;;25.49;45.40;100296.19;4475961;32;33752;-74
2023/08/10 08:28:54;;;;;;;3.20;1.25;;;;;;;25.70;41.45;100303.09;4479392;32;33311;-76
2023/08/10 08:31:22;;;;;;;2.35;1.17;;;;;;;25.56;42.99;100310.31;4481145;32;33958;-76
2023/08/10 08:33:50;;;;;;;3.20;1.33;;;;;;;25.93;42.06;100303.81;4477037;32;34768;-76
2023/08/10 08:36:18;;;;;;;3.15;1.25;;;;;;;26.16;42.59;100316.84;4477972;32;33392;-76
2023/08/10 08:38:45;;;;;;;2.90;1.30;;;;;;;25.87;42.48;100315.31;4474240;32;33088;-76
2023/08/10 08:41:18;;;;;;;2.85;1.33;;;;;;;26.17;41.97;100318.59;4481629;32;33016;-75
2023/08/10 08:43:47;;;;;;;2.58;1.15;;;;;;;26.29;41.29;100314.03;4475012;32;33486;-74
2023/08/10 08:46:22;;;;;;;2.65;1.30;;;;;;;26.48;38.92;100313.78;4468706;32;33342;-75
2023/08/10 08:48:50;;;;;;;5.68;2.08;;;;;;;26.51;38.66;100307.56;4463799;32;33251;-76
2023/08/10 08:51:18;;;;;;;3.12;1.02;;;;;;;26.72;38.19;100307.31;4466037;32;33023;-75
2023/08/10 08:53:46;;;;;;;3.17;1.10;;;;;;;27.10;35.82;100307.66;4478923;32;34418;-76
2023/08/10 08:56:14;;;;;;;6.37;1.70;;;;;;;27.20;36.39;100304.84;4460705;32;33754;-76
2023/08/10 08:58:41;;;;;;;4.80;1.55;;;;;;;27.42;35.60;100307.19;4470404;32;34019;-75
2023/08/10 09:01:10;;;;;;;4.70;1.37;;;;;;;27.41;35.25;100303.66;4483736;32;34210;-77
2023/08/10 09:03:37;;;;;;;2.10;1.10;;;;;;;27.44;34.79;100313.38;4473417;32;33810;-77
2023/08/10 09:06:05;;;;;;;3.20;1.40;;;;;;;27.45;34.01;100299.19;4479712;32;33839;-77
2023/08/10 09:08:34;;;;;;;3.25;1.25;;;;;;;27.48;34.00;100303.56;4456431;32;33681;-76
2023/08/10 09:11:02;;;;;;;2.08;0.88;;;;;;;27.76;35.08;100309.31;4477853;32;33791;-76
2023/08/10 09:13:31;;;;;;;2.20;1.05;;;;;;;27.76;33.18;100307.50;4475259;32;33682;-75
2023/08/10 09:16:10;;;;;;;2.42;0.80;;;;;;;27.95;31.25;100310.75;4480757;32;33523;-76
2023/08/10 09:18:40;;;;;;;1.92;0.93;;;;;;;27.69;30.37;100312.97;4482112;32;33402;-76
2023/08/10 09:21:13;;;;;;;2.10;1.00;;;;;;;27.88;30.09;100309.09;4482807;32;33090;-76
2023/08/10 09:23:43;;;;;;;1.87;0.90;;;;;;;27.78;29.47;100318.13;4467261;32;33198;-75
2023/08/10 09:26:11;;;;;;;1.70;0.75;;;;;;;28.03;29.19;100311.47;4479102;32;33725;-75
2023/08/10 09:28:39;;;;;;;1.58;0.68;;;;;;;27.54;30.24;100309.66;4481262;32;34365;-75
2023/08/10 09:31:09;;;;;;;2.10;0.90;;;;;;;27.69;28.94;100312.97;4476585;32;33137;-78
2023/08/10 09:33:40;;;;;;;2.90;1.00;;;;;;;27.81;29.06;100312.72;4477883;32;33425;-76
2023/08/10 09:36:09;;;;;;;2.22;1.00;;;;;;;27.95;29.19;100305.44;4478775;32;34657;-76
2023/08/10 09:38:37;;;;;;;3.10;1.00;;;;;;;28.04;31.62;100305.22;4479318;32;33685;-75
2023/08/10 09:41:09;;;;;;;2.80;1.10;;;;;;;28.02;31.71;100301.72;4483205;32;33293;-77
2023/08/10 09:43:40;;;;;;;2.58;1.10;;;;;;;27.91;31.62;100309.06;4472276;32;34116;-77
2023/08/10 09:46:09;;;;;;;2.67;1.00;;;;;;;28.22;30.61;100305.78;4479475;32;32778;-76
2023/08/10 09:48:40;;;;;;;2.28;0.95;;;;;;;28.23;31.10;100304.87;4483372;32;33754;-76
2023/08/10 09:51:10;;;;;;;2.57;0.90;;;;;;;28.52;29.25;100303.44;4483076;32;32536;-76
2023/08/10 09:53:38;;;;;;;2.42;1.00;;;;;;;28.62;30.54;100303.19;4483282;32;32635;-77
2023/08/10 09:56:07;;;;;;;2.08;0.90;;;;;;;28.76;30.19;100308.25;4482793;32;33474;-76
2023/08/10 09:58:36;;;;;;;3.12;1.10;;;;;;;28.82;29.50;100305.44;4483251;32;33604;-77
2023/08/10 10:01:05;;;;;;;2.25;1.00;;;;;;;28.61;30.88;100311.25;4483306;32;33788;-77
2023/08/10 10:03:33;;;;;;;1.90;1.00;;;;;;;28.82;29.41;100305.44;4473838;32;33160;-76
2023/08/10 10:06:01;;;;;;;2.12;1.10;;;;;;;28.98;28.27;100294.44;4471452;32;34353;-77
2023/08/10 10:08:35;;;;;;;1.98;1.00;;;;;;;28.61;29.35;100295.25;4481169;32;34443;-77
2023/08/10 10:11:08;;;;;;;2.30;0.90;;;;;;;28.83;28.86;100301.84;4483168;32;32359;-76
2023/08/10 10:13:36;;;;;;;2.33;1.10;;;;;;;28.92;27.50;100305.25;4473617;32;33432;-76
2023/08/10 10:16:04;;;;;;;2.40;1.00;;;;;;;28.95;27.38;100289.16;4477151;32;33752;-76
2023/08/10 10:18:31;;;;;;;2.42;1.05;;;;;;;28.69;29.87;100298.63;4468718;32;33995;-77
2023/08/10 10:20:59;;;;;;;2.17;0.90;;;;;;;28.86;29.15;100297.34;4473088;32;34267;-76
2023/08/10 10:23:29;;;;;;;2.20;1.00;;;;;;;28.92;27.72;100299.91;4483008;32;33702;-77
2023/08/10 10:25:57;;;;;;;1.83;0.88;;;;;;;29.09;27.77;100291.50;4478338;32;33700;-76
2023/08/10 10:28:26;;;;;;;1.92;1.00;;;;;;;28.95;28.58;100289.16;4482953;32;33792;-76
2023/08/10 10:31:02;;;;;;;1.90;0.95;;;;;;;28.89;28.35;100283.97;4454406;32;31503;-76
2023/08/10 10:33:31;;;;;;;2.03;1.20;;;;;;;28.97;27.63;100282.00;4461273;32;32856;-76
2023/08/10 10:36:13;;;;;;;2.95;0.90;;;;;;;29.15;26.75;100286.06;4471662;32;33842;-75
2023/08/10 10:38:56;;;;;;;2.40;1.00;;;;;;;28.74;28.72;100286.09;4470264;32;33341;-76
2023/08/10 10:41:36;;;;;;;3.20;1.10;;;;;;;29.39;26.70;100279.25;4482699;32;33599;-77
2023/08/10 10:44:05;;;;;;;2.53;1.10;;;;;;;29.33;25.91;100284.72;4482573;32;32584;-76
2023/08/10 10:46:33;;;;;;;1.98;0.90;;;;;;;29.54;26.08;100286.84;4482466;32;33831;-76
2023/08/10 10:49:06;;;;;;;2.10;0.97;;;;;;;29.33;26.84;100280.25;4482602;32;34492;-76
2023/08/10 10:51:47;;;;;;;2.17;0.95;;;;;;;29.09;28.02;100276.38;4463381;32;32436;-77
2023/08/10 10:54:15;;;;;;;3.03;1.20;;;;;;;29.00;28.75;100272.13;4482376;32;33299;-76
2023/08/10 10:56:43;;;;;;;2.75;1.30;;;;;;;29.52;27.33;100275.34;4482754;32;34126;-76
2023/08/10 10:59:10;;;;;;;2.27;1.10;;;;;;;29.23;28.25;100267.22;4482171;32;33800;-76
2023/08/10 11:01:38;;;;;;;2.95;1.00;;;;;;;29.26;28.36;100272.44;4481258;32;33177;-76
2023/08/10 11:04:07;;;;;;;2.10;1.00;;;;;;;29.14;26.61;100263.84;4480725;32;33814;-76
2023/08/10 11:06:37;;;;;;;2.30;1.00;;;;;;;28.93;27.21;100270.50;4481467;32;33881;-76
2023/08/10 11:09:06;;;;;;;2.50;1.10;;;;;;;28.91;27.85;100260.81;4477802;32;34267;-77
2023/08/10 11:11:35;;;;;;;2.60;1.17;;;;;;;28.83;28.27;100264.53;4482365;32;33177;-76
2023/08/10 11:14:03;;;;;;;3.97;1.35;;;;;;;28.80;29.40;100261.94;4469506;32;33702;-77
2023/08/10 11:16:39;;;;;;;2.53;1.05;;;;;;;28.80;29.36;100259.28;4466323;32;34130;-76
2023/08/10 11:19:11;;;;;;;2.78;1.30;;;;;;;29.06;28.74;100267.59;4472537;32;32960;-77
2023/08/10 11:21:42;;;;;;;2.30;1.00;;;;;;;28.94;28.96;100263.41;4461647;32;33002;-77
2023/08/10 11:24:10;;;;;;;2.00;1.00;;;;;;;28.90;28.70;100254.59;4475763;32;33147;-76
2023/08/10 11:26:37;;;;;;;2.17;1.07;;;;;;;29.17;29.27;100257.56;4480740;32;34963;-74
2023/08/10 11:29:05;;;;;;;3.60;1.10;;;;;;;29.09;29.49;100244.37;4486375;32;32543;-77
2023/08/10 11:31:38;;;;;;;2.03;0.90;;;;;;;29.16;29.06;100251.34;4472081;32;34041;-77